Time;durP1;ratioP1;P1;durP2;ratioP2;P2;SDS_P1;SDS_P2;PMS_P1;PMS_P2;Temp;Humidity;BMP_temperature;BMP_pressure;BME280_temperature;BME280_humidity;BME280_pressure;Samples;Min_cycle;Max_cycle;Signal;HPM_P1;HPM_P2
2022/03/13 00:00:36;;;;;;;21.30;8.45;;;;;;;;;;5081180;28;20029;-49
2022/03/13 00:03:06;;;;;;;16.15;6.68;;;;;;;;;;5084984;28;20774;-48
2022/03/13 00:05:35;;;;;;;11.18;6.70;;;;;;;;;;5092423;28;20028;-48
2022/03/13 00:08:02;;;;;;;14.63;7.22;;;;;;;;;;5089221;28;20031;-47
2022/03/13 00:10:28;;;;;;;21.35;7.25;;;;;;;;;;5077331;28;20032;-51
2022/03/13 00:12:55;;;;;;;15.13;7.20;;;;;;;;;;5081769;28;20667;-50
2022/03/13 00:15:26;;;;;;;17.42;7.47;;;;;;;;;;5086169;28;20111;-49
2022/03/13 00:17:52;;;;;;;17.45;7.50;;;;;;;;;;5083552;28;20027;-48
2022/03/13 00:20:20;;;;;;;16.15;7.90;;;;;;;;;;5085023;28;20432;-48
2022/03/13 00:22:46;;;;;;;14.60;6.75;;;;;;;;;;5081283;28;20036;-48
2022/03/13 00:25:12;;;;;;;13.50;6.65;;;;;;;;;;5090821;28;20031;-47
2022/03/13 00:27:38;;;;;;;14.13;7.00;;;;;;;;;;5079071;28;20031;-47
2022/03/13 00:30:05;;;;;;;17.02;7.60;;;;;;;;;;5086339;28;20380;-47
2022/03/13 00:32:31;;;;;;;13.45;6.50;;;;;;;;;;5085843;28;20415;-47
2022/03/13 00:34:58;;;;;;;14.70;6.50;;;;;;;;;;5085328;28;20036;-48
2022/03/13 00:37:24;;;;;;;14.30;7.10;;;;;;;;;;5087844;28;20047;-47
2022/03/13 00:39:51;;;;;;;13.00;6.45;;;;;;;;;;5079084;28;20391;-48
2022/03/13 00:42:17;;;;;;;15.55;6.90;;;;;;;;;;5086808;28;20369;-49
2022/03/13 00:44:43;;;;;;;16.50;7.47;;;;;;;;;;5078868;28;20038;-53
2022/03/13 00:47:09;;;;;;;11.65;6.13;;;;;;;;;;5090084;28;20031;-49
2022/03/13 00:49:35;;;;;;;14.70;7.07;;;;;;;;;;5082575;28;20032;-49
2022/03/13 00:52:01;;;;;;;10.90;6.32;;;;;;;;;;5077507;28;20119;-48
2022/03/13 00:54:27;;;;;;;13.50;6.47;;;;;;;;;;5083074;28;20020;-50
2022/03/13 00:56:54;;;;;;;15.43;6.72;;;;;;;;;;5089713;28;20035;-48
2022/03/13 00:59:20;;;;;;;16.92;7.28;;;;;;;;;;5084804;28;20051;-48
2022/03/13 01:01:46;;;;;;;16.58;6.95;;;;;;;;;;5082067;28;20392;-52
2022/03/13 01:04:12;;;;;;;14.00;7.40;;;;;;;;;;5091794;28;20028;-48
2022/03/13 01:06:38;;;;;;;14.07;6.80;;;;;;;;;;5091453;28;20718;-48
2022/03/13 01:09:04;;;;;;;12.32;6.35;;;;;;;;;;5079710;28;20686;-48
2022/03/13 01:11:30;;;;;;;14.77;7.00;;;;;;;;;;5090845;28;20128;-47
2022/03/13 01:13:56;;;;;;;12.57;6.13;;;;;;;;;;5079023;28;20087;-47
2022/03/13 01:16:23;;;;;;;13.55;6.53;;;;;;;;;;5085675;28;20107;-48
2022/03/13 01:18:53;;;;;;;13.13;6.68;;;;;;;;;;5087239;28;20388;-49
2022/03/13 01:21:20;;;;;;;16.48;6.57;;;;;;;;;;5077793;28;20476;-48
2022/03/13 01:23:58;;;;;;;14.68;6.28;;;;;;;;;;5086795;28;20024;-48
2022/03/13 01:26:24;;;;;;;14.20;6.32;;;;;;;;;;5088501;28;20211;-47
2022/03/13 01:28:50;;;;;;;15.20;7.05;;;;;;;;;;5080743;28;20033;-48
2022/03/13 01:31:17;;;;;;;14.43;6.88;;;;;;;;;;5082085;28;20028;-49
2022/03/13 01:33:43;;;;;;;13.10;6.72;;;;;;;;;;5087665;28;20349;-48
2022/03/13 01:36:09;;;;;;;11.60;6.38;;;;;;;;;;5085338;28;20024;-51
2022/03/13 01:38:35;;;;;;;15.15;7.25;;;;;;;;;;5084588;28;20039;-53
2022/03/13 01:41:01;;;;;;;12.30;6.93;;;;;;;;;;5090317;28;20442;-50
2022/03/13 01:43:30;;;;;;;13.88;6.35;;;;;;;;;;5071978;28;20029;-48
2022/03/13 01:45:56;;;;;;;16.98;7.25;;;;;;;;;;5084656;28;20028;-48
2022/03/13 01:48:23;;;;;;;15.52;6.53;;;;;;;;;;5077442;28;20460;-48
2022/03/13 01:50:49;;;;;;;19.20;7.78;;;;;;;;;;5083906;28;20037;-49
2022/03/13 01:53:15;;;;;;;17.42;7.07;;;;;;;;;;5080485;28;20051;-52
2022/03/13 01:55:42;;;;;;;15.23;7.45;;;;;;;;;;5082701;28;20082;-47
2022/03/13 01:58:08;;;;;;;13.88;7.03;;;;;;;;;;5078387;28;20029;-48
2022/03/13 02:00:34;;;;;;;14.88;6.55;;;;;;;;;;5081618;28;20069;-46
2022/03/13 02:03:00;;;;;;;13.07;6.28;;;;;;;;;;5082562;28;20044;-47
2022/03/13 02:05:33;;;;;;;14.30;6.55;;;;;;;;;;5077281;28;20028;-47
2022/03/13 02:08:00;;;;;;;18.33;7.20;;;;;;;;;;5081149;28;20028;-47
2022/03/13 02:10:27;;;;;;;15.15;6.72;;;;;;;;;;5090688;28;20039;-47
2022/03/13 02:12:55;;;;;;;15.50;6.75;;;;;;;;;;5083895;28;20077;-47
2022/03/13 02:15:22;;;;;;;11.43;6.68;;;;;;;;;;5080378;28;20032;-47
2022/03/13 02:17:48;;;;;;;17.10;7.50;;;;;;;;;;5084042;28;20028;-46
2022/03/13 02:20:21;;;;;;;14.57;7.30;;;;;;;;;;5087689;28;20073;-47
2022/03/13 02:22:47;;;;;;;14.55;6.55;;;;;;;;;;5074198;28;20032;-47
2022/03/13 02:25:18;;;;;;;15.25;6.45;;;;;;;;;;5082622;28;20039;-50
2022/03/13 02:27:44;;;;;;;12.82;5.80;;;;;;;;;;5080654;28;20029;-49
2022/03/13 02:30:10;;;;;;;15.90;6.80;;;;;;;;;;5072468;28;20067;-48
2022/03/13 02:32:36;;;;;;;15.60;6.88;;;;;;;;;;5082848;28;20028;-47
2022/03/13 02:35:02;;;;;;;15.77;6.88;;;;;;;;;;5085617;28;20035;-50
2022/03/13 02:37:38;;;;;;;15.85;6.50;;;;;;;;;;5075658;28;20465;-47
2022/03/13 02:40:05;;;;;;;13.35;6.47;;;;;;;;;;5085838;28;20035;-49
2022/03/13 02:42:31;;;;;;;14.93;6.32;;;;;;;;;;5080423;28;20814;-47
2022/03/13 02:44:57;;;;;;;12.65;6.22;;;;;;;;;;5076376;28;20107;-48
2022/03/13 02:47:23;;;;;;;12.57;6.72;;;;;;;;;;5074094;28;20060;-47
2022/03/13 02:49:49;;;;;;;15.43;6.97;;;;;;;;;;5078688;28;20078;-48
2022/03/13 02:52:15;;;;;;;14.30;6.38;;;;;;;;;;5084936;28;20047;-49
2022/03/13 02:54:41;;;;;;;16.30;6.90;;;;;;;;;;5079070;28;20028;-48
2022/03/13 02:57:07;;;;;;;16.60;6.35;;;;;;;;;;5087207;28;20054;-47
2022/03/13 02:59:33;;;;;;;13.88;6.13;;;;;;;;;;5089600;28;20024;-48
2022/03/13 03:02:01;;;;;;;14.43;6.47;;;;;;;;;;5079649;28;20028;-48
2022/03/13 03:04:27;;;;;;;13.20;6.65;;;;;;;;;;5088392;28;20399;-48
2022/03/13 03:06:56;;;;;;;13.45;7.05;;;;;;;;;;5077804;28;20040;-47
2022/03/13 03:09:23;;;;;;;13.00;6.53;;;;;;;;;;5074944;28;20021;-47
2022/03/13 03:11:49;;;;;;;14.50;6.65;;;;;;;;;;5082886;28;20043;-47
2022/03/13 03:14:15;;;;;;;17.67;6.88;;;;;;;;;;5081342;28;20059;-47
2022/03/13 03:16:42;;;;;;;16.40;7.10;;;;;;;;;;5075031;28;20042;-51
2022/03/13 03:19:07;;;;;;;17.15;6.55;;;;;;;;;;5081214;28;20418;-49
2022/03/13 03:21:33;;;;;;;12.27;6.00;;;;;;;;;;5076763;28;20040;-47
2022/03/13 03:24:00;;;;;;;14.63;6.55;;;;;;;;;;5077745;28;20028;-46
2022/03/13 03:26:26;;;;;;;15.18;6.82;;;;;;;;;;5078216;28;20043;-50
2022/03/13 03:28:52;;;;;;;19.48;7.00;;;;;;;;;;5081679;28;20036;-48
2022/03/13 03:31:18;;;;;;;18.05;7.10;;;;;;;;;;5073846;28;20086;-48
2022/03/13 03:33:44;;;;;;;10.85;6.20;;;;;;;;;;5084402;28;20023;-47
2022/03/13 03:36:15;;;;;;;14.93;6.65;;;;;;;;;;5082618;28;20021;-48
2022/03/13 03:38:41;;;;;;;12.50;6.40;;;;;;;;;;5078790;28;20073;-46
2022/03/13 03:41:06;;;;;;;20.42;6.88;;;;;;;;;;5082325;28;20066;-47
2022/03/13 03:43:33;;;;;;;14.55;7.07;;;;;;;;;;5088750;28;20424;-47
2022/03/13 03:45:59;;;;;;;13.50;6.72;;;;;;;;;;5093935;28;20050;-46
2022/03/13 03:48:25;;;;;;;15.38;7.50;;;;;;;;;;5079484;28;20094;-47
2022/03/13 03:50:51;;;;;;;18.85;7.60;;;;;;;;;;5091835;28;20035;-47
2022/03/13 03:53:17;;;;;;;15.68;6.97;;;;;;;;;;5079989;28;20044;-46
2022/03/13 03:55:43;;;;;;;19.98;7.85;;;;;;;;;;5084559;28;20384;-48
2022/03/13 03:58:09;;;;;;;14.27;7.03;;;;;;;;;;5089184;28;20101;-46
2022/03/13 04:00:36;;;;;;;15.25;7.28;;;;;;;;;;5081020;28;20049;-46
2022/03/13 04:03:01;;;;;;;17.48;8.32;;;;;;;;;;5083395;28;20028;-46
2022/03/13 04:05:27;;;;;;;17.27;7.20;;;;;;;;;;5086438;28;20039;-48
2022/03/13 04:07:53;;;;;;;16.10;7.05;;;;;;;;;;5076022;28;20032;-47
2022/03/13 04:10:19;;;;;;;15.70;6.97;;;;;;;;;;5083508;28;20037;-50
2022/03/13 04:12:45;;;;;;;17.52;7.63;;;;;;;;;;5078326;28;20029;-48
2022/03/13 04:15:11;;;;;;;18.42;7.05;;;;;;;;;;5078620;28;20040;-47
2022/03/13 04:17:37;;;;;;;16.70;7.07;;;;;;;;;;5078725;28;20017;-47
2022/03/13 04:20:06;;;;;;;16.60;7.30;;;;;;;;;;5080337;28;20067;-48
2022/03/13 04:22:32;;;;;;;20.65;7.32;;;;;;;;;;5082259;28;20059;-47
2022/03/13 04:24:58;;;;;;;15.63;7.00;;;;;;;;;;5081778;28;20396;-48
2022/03/13 04:27:25;;;;;;;14.77;7.03;;;;;;;;;;5088495;28;20024;-47
2022/03/13 04:29:51;;;;;;;21.55;7.65;;;;;;;;;;5083996;28;20434;-47
2022/03/13 04:32:22;;;;;;;15.63;7.43;;;;;;;;;;5080219;28;20025;-47
2022/03/13 04:34:48;;;;;;;18.83;7.68;;;;;;;;;;5080642;28;20028;-47
2022/03/13 04:37:15;;;;;;;14.80;7.28;;;;;;;;;;5078248;28;20526;-46
2022/03/13 04:39:42;;;;;;;14.60;6.68;;;;;;;;;;5083186;28;20058;-47
2022/03/13 04:42:08;;;;;;;17.45;6.28;;;;;;;;;;5076754;28;20538;-47
2022/03/13 04:44:35;;;;;;;19.30;7.20;;;;;;;;;;5078062;28;20059;-47
2022/03/13 04:47:04;;;;;;;16.98;6.68;;;;;;;;;;5077357;28;20033;-46
2022/03/13 04:49:30;;;;;;;12.38;5.80;;;;;;;;;;5087794;28;20072;-47
2022/03/13 04:51:56;;;;;;;15.27;7.07;;;;;;;;;;5081190;28;20490;-47
2022/03/13 04:54:22;;;;;;;15.98;6.95;;;;;;;;;;5077094;28;20028;-47
2022/03/13 04:56:48;;;;;;;11.18;5.28;;;;;;;;;;5082504;28;20055;-47
2022/03/13 04:59:14;;;;;;;14.23;6.78;;;;;;;;;;5075901;28;20107;-47
2022/03/13 05:01:40;;;;;;;13.88;6.70;;;;;;;;;;5080825;28;20020;-46
2022/03/13 05:04:07;;;;;;;13.38;6.68;;;;;;;;;;5083470;28;20035;-47
2022/03/13 05:06:35;;;;;;;15.93;6.70;;;;;;;;;;5089930;28;20457;-49
2022/03/13 05:09:01;;;;;;;16.70;7.07;;;;;;;;;;5078671;28;20032;-47
2022/03/13 05:11:27;;;;;;;12.48;6.22;;;;;;;;;;5083377;28;20161;-46
2022/03/13 05:13:54;;;;;;;15.32;7.15;;;;;;;;;;5080192;28;20578;-48
2022/03/13 05:16:20;;;;;;;14.23;6.28;;;;;;;;;;5088806;28;20472;-46
2022/03/13 05:18:46;;;;;;;15.70;5.88;;;;;;;;;;5080876;28;20459;-46
2022/03/13 05:21:12;;;;;;;16.48;6.72;;;;;;;;;;5083738;28;20066;-47
2022/03/13 05:23:38;;;;;;;16.45;6.85;;;;;;;;;;5084599;28;20032;-48
2022/03/13 05:26:03;;;;;;;16.35;6.90;;;;;;;;;;5080212;28;20025;-48
2022/03/13 05:28:29;;;;;;;14.00;6.38;;;;;;;;;;5082019;28;20047;-46
2022/03/13 05:30:55;;;;;;;19.13;6.63;;;;;;;;;;5081524;28;20031;-47
2022/03/13 05:33:21;;;;;;;14.43;6.20;;;;;;;;;;5080342;28;20020;-47
2022/03/13 05:35:47;;;;;;;12.20;6.07;;;;;;;;;;5082474;28;20497;-46
2022/03/13 05:38:14;;;;;;;12.98;6.30;;;;;;;;;;5076949;28;20032;-47
2022/03/13 05:40:40;;;;;;;14.05;5.97;;;;;;;;;;5081332;28;20743;-48
2022/03/13 05:43:07;;;;;;;17.25;6.82;;;;;;;;;;5082762;28;20885;-51
2022/03/13 05:45:33;;;;;;;17.38;5.95;;;;;;;;;;5079888;28;20142;-49
2022/03/13 05:48:05;;;;;;;14.27;6.43;;;;;;;;;;5089755;28;20032;-47
2022/03/13 05:50:31;;;;;;;15.85;6.55;;;;;;;;;;5090425;28;20028;-47
2022/03/13 05:52:58;;;;;;;14.38;6.55;;;;;;;;;;5086206;28;20036;-47
2022/03/13 05:55:28;;;;;;;12.70;6.10;;;;;;;;;;5082616;28;20027;-47
2022/03/13 05:57:54;;;;;;;18.65;6.68;;;;;;;;;;5079061;28;20031;-48
2022/03/13 06:00:22;;;;;;;18.20;7.00;;;;;;;;;;5083945;28;20146;-47
2022/03/13 06:02:48;;;;;;;13.50;6.60;;;;;;;;;;5075546;28;20074;-48
2022/03/13 06:05:16;;;;;;;18.08;7.10;;;;;;;;;;5079498;28;20032;-47
2022/03/13 06:07:42;;;;;;;17.85;6.95;;;;;;;;;;5078595;28;20495;-48
2022/03/13 06:10:08;;;;;;;14.65;6.13;;;;;;;;;;5086202;28;20036;-46
2022/03/13 06:12:35;;;;;;;13.70;7.10;;;;;;;;;;5078536;28;20100;-46
2022/03/13 06:15:01;;;;;;;17.63;6.88;;;;;;;;;;5078510;28;20072;-46
2022/03/13 06:17:28;;;;;;;14.95;6.00;;;;;;;;;;5089525;28;20731;-47
2022/03/13 06:19:55;;;;;;;15.63;6.43;;;;;;;;;;5075927;28;20027;-47
2022/03/13 06:22:22;;;;;;;15.05;6.90;;;;;;;;;;5083448;28;20484;-47
2022/03/13 06:24:48;;;;;;;16.13;7.32;;;;;;;;;;5080783;28;20025;-49
2022/03/13 06:27:14;;;;;;;11.27;5.88;;;;;;;;;;5085034;28;20085;-47
2022/03/13 06:29:41;;;;;;;15.60;7.18;;;;;;;;;;5084563;28;20039;-48
2022/03/13 06:32:07;;;;;;;12.80;6.18;;;;;;;;;;5084507;28;20023;-50
2022/03/13 06:34:33;;;;;;;11.48;5.72;;;;;;;;;;5087096;28;20027;-46
2022/03/13 06:36:59;;;;;;;14.25;5.60;;;;;;;;;;5088235;28;20412;-47
2022/03/13 06:39:25;;;;;;;16.48;6.68;;;;;;;;;;5091357;28;20107;-49
2022/03/13 06:41:52;;;;;;;15.20;6.60;;;;;;;;;;5082599;28;20028;-47
2022/03/13 06:44:18;;;;;;;13.90;6.32;;;;;;;;;;5082853;28;20358;-47
2022/03/13 06:46:44;;;;;;;16.77;7.68;;;;;;;;;;5079439;28;20596;-49
2022/03/13 06:49:10;;;;;;;16.70;8.85;;;;;;;;;;5083974;28;20035;-47
2022/03/13 06:51:38;;;;;;;11.65;6.43;;;;;;;;;;5083347;28;20032;-46
2022/03/13 06:54:04;;;;;;;13.50;6.38;;;;;;;;;;5083267;28;20044;-47
2022/03/13 06:56:30;;;;;;;13.60;6.47;;;;;;;;;;5086984;28;20147;-47
2022/03/13 06:59:02;;;;;;;16.13;7.05;;;;;;;;;;5090625;28;20028;-46
2022/03/13 07:01:28;;;;;;;25.30;11.60;;;;;;;;;;5077804;28;20068;-46
2022/03/13 07:03:54;;;;;;;14.48;6.28;;;;;;;;;;5090070;28;20035;-48
2022/03/13 07:06:20;;;;;;;14.18;6.90;;;;;;;;;;5085388;28;20033;-47
2022/03/13 07:08:46;;;;;;;17.80;6.25;;;;;;;;;;5078534;28;20031;-47
2022/03/13 07:11:12;;;;;;;15.05;6.32;;;;;;;;;;5077351;28;20111;-48
2022/03/13 07:13:40;;;;;;;12.82;6.05;;;;;;;;;;5077932;28;20036;-48
2022/03/13 07:16:06;;;;;;;11.25;5.85;;;;;;;;;;5081298;28;20071;-48
2022/03/13 07:18:33;;;;;;;19.48;7.40;;;;;;;;;;5089858;28;20082;-47
2022/03/13 07:20:59;;;;;;;16.20;6.78;;;;;;;;;;5081477;28;20499;-50
2022/03/13 07:23:25;;;;;;;13.48;5.78;;;;;;;;;;5080203;28;20028;-52
2022/03/13 07:25:52;;;;;;;13.25;6.43;;;;;;;;;;5093241;28;20022;-48
2022/03/13 07:28:18;;;;;;;18.02;6.60;;;;;;;;;;5087929;28;20498;-48
2022/03/13 07:30:44;;;;;;;12.07;5.75;;;;;;;;;;5081942;28;20025;-47
2022/03/13 07:33:11;;;;;;;15.23;6.65;;;;;;;;;;5081826;28;20070;-48
2022/03/13 07:35:37;;;;;;;52.38;23.73;;;;;;;;;;5084411;28;20024;-46
2022/03/13 07:38:03;;;;;;;14.48;6.40;;;;;;;;;;5079906;28;20036;-46
2022/03/13 07:40:30;;;;;;;11.57;6.22;;;;;;;;;;5084403;28;20118;-48
2022/03/13 07:42:57;;;;;;;13.45;6.28;;;;;;;;;;5094283;28;20038;-47
2022/03/13 07:45:24;;;;;;;14.40;6.30;;;;;;;;;;5095366;28;20020;-47
2022/03/13 07:47:50;;;;;;;17.05;6.82;;;;;;;;;;5094400;28;20040;-48
2022/03/13 07:50:17;;;;;;;14.20;6.43;;;;;;;;;;5092212;28;20058;-49
2022/03/13 07:52:43;;;;;;;12.93;6.15;;;;;;;;;;5093974;28;20109;-47
2022/03/13 07:55:09;;;;;;;14.60;6.32;;;;;;;;;;5094990;28;20138;-49
2022/03/13 07:57:35;;;;;;;16.80;6.07;;;;;;;;;;5090973;28;20039;-50
2022/03/13 08:00:01;;;;;;;15.30;5.97;;;;;;;;;;5085396;28;20376;-47
2022/03/13 08:02:28;;;;;;;12.48;5.80;;;;;;;;;;5092053;28;20112;-47
2022/03/13 08:04:54;;;;;;;12.88;6.18;;;;;;;;;;5082072;28;20036;-50
2022/03/13 08:07:20;;;;;;;13.85;6.32;;;;;;;;;;5090265;28;20039;-50
2022/03/13 08:09:46;;;;;;;14.95;6.55;;;;;;;;;;5081009;28;20027;-47
2022/03/13 08:12:12;;;;;;;13.95;5.78;;;;;;;;;;5081444;28;20361;-49
2022/03/13 08:14:38;;;;;;;13.02;5.80;;;;;;;;;;5090332;28;20389;-47
2022/03/13 08:17:04;;;;;;;13.77;6.20;;;;;;;;;;5085645;28;20102;-48
2022/03/13 08:19:30;;;;;;;13.00;6.10;;;;;;;;;;5089323;28;20108;-46
2022/03/13 08:21:56;;;;;;;12.48;5.88;;;;;;;;;;5084202;28;20039;-47
2022/03/13 08:24:23;;;;;;;18.33;6.40;;;;;;;;;;5086277;28;20506;-47
2022/03/13 08:26:49;;;;;;;13.88;5.75;;;;;;;;;;5092297;28;20059;-49
2022/03/13 08:29:15;;;;;;;11.57;5.32;;;;;;;;;;5079971;28;20033;-49
2022/03/13 08:31:42;;;;;;;15.77;6.75;;;;;;;;;;5080805;28;20472;-51
2022/03/13 08:34:08;;;;;;;13.60;5.50;;;;;;;;;;5081654;28;20724;-47
2022/03/13 08:36:37;;;;;;;12.85;5.47;;;;;;;;;;5089696;28;20089;-47
2022/03/13 08:39:04;;;;;;;13.32;5.68;;;;;;;;;;5084098;28;20039;-45
2022/03/13 08:41:30;;;;;;;11.15;5.60;;;;;;;;;;5089616;28;20525;-49
2022/03/13 08:43:56;;;;;;;13.45;6.22;;;;;;;;;;5089477;28;20031;-49
2022/03/13 08:46:22;;;;;;;12.13;5.50;;;;;;;;;;5088186;28;20069;-49
2022/03/13 08:48:48;;;;;;;14.68;6.15;;;;;;;;;;5081301;28;20024;-49
2022/03/13 08:51:14;;;;;;;9.93;5.43;;;;;;;;;;5091063;28;20050;-48
2022/03/13 08:53:41;;;;;;;12.93;6.05;;;;;;;;;;5081634;28;20126;-47
2022/03/13 08:56:08;;;;;;;17.23;7.60;;;;;;;;;;5087105;28;20025;-47
2022/03/13 08:58:34;;;;;;;13.48;5.55;;;;;;;;;;5083947;28;20069;-47
2022/03/13 09:01:00;;;;;;;13.32;5.82;;;;;;;;;;5086985;28;20024;-49
2022/03/13 09:03:28;;;;;;;15.88;5.75;;;;;;;;;;5086231;28;20036;-48
2022/03/13 09:05:55;;;;;;;13.80;5.85;;;;;;;;;;5083604;28;20043;-50
2022/03/13 09:08:21;;;;;;;10.02;4.80;;;;;;;;;;5082861;28;20840;-50
2022/03/13 09:10:47;;;;;;;13.65;5.75;;;;;;;;;;5079016;28;20032;-47
2022/03/13 09:13:14;;;;;;;13.10;4.68;;;;;;;;;;5084175;28;20016;-48
2022/03/13 09:15:40;;;;;;;11.55;5.55;;;;;;;;;;5091228;28;20042;-48
2022/03/13 09:18:06;;;;;;;11.30;5.55;;;;;;;;;;5086856;28;20024;-48
2022/03/13 09:20:33;;;;;;;11.15;5.50;;;;;;;;;;5090210;28;20418;-47
2022/03/13 09:22:59;;;;;;;11.40;5.00;;;;;;;;;;5087526;28;20048;-47
2022/03/13 09:25:25;;;;;;;12.20;5.43;;;;;;;;;;5076378;28;20029;-47
2022/03/13 09:27:52;;;;;;;16.08;5.45;;;;;;;;;;5082028;28;20103;-48
2022/03/13 09:30:18;;;;;;;10.80;5.28;;;;;;;;;;5081636;28;20039;-47
2022/03/13 09:32:44;;;;;;;13.05;5.57;;;;;;;;;;5078390;28;20024;-46
2022/03/13 09:35:11;;;;;;;11.05;5.03;;;;;;;;;;5078832;28;20354;-50
2022/03/13 09:37:39;;;;;;;10.35;5.28;;;;;;;;;;5079169;28;20384;-47
2022/03/13 09:40:05;;;;;;;11.77;5.40;;;;;;;;;;5080917;28;20117;-47
2022/03/13 09:42:31;;;;;;;15.05;5.07;;;;;;;;;;5087977;28;20032;-48
2022/03/13 09:44:59;;;;;;;13.60;5.53;;;;;;;;;;5087556;28;20468;-50
2022/03/13 09:47:25;;;;;;;11.18;5.18;;;;;;;;;;5088283;28;20104;-52
2022/03/13 09:49:51;;;;;;;13.38;5.30;;;;;;;;;;5083927;28;20468;-51
2022/03/13 09:52:18;;;;;;;10.05;5.00;;;;;;;;;;5087987;28;20097;-48
2022/03/13 09:54:44;;;;;;;11.02;5.25;;;;;;;;;;5085704;28;20020;-48
2022/03/13 09:57:10;;;;;;;9.55;4.82;;;;;;;;;;5087466;28;20013;-50
2022/03/13 09:59:36;;;;;;;12.52;5.45;;;;;;;;;;5088388;28;20027;-49
2022/03/13 10:02:06;;;;;;;13.00;5.22;;;;;;;;;;5085256;28;20028;-49
2022/03/13 10:04:32;;;;;;;9.90;4.72;;;;;;;;;;5086175;28;20016;-47
2022/03/13 10:07:03;;;;;;;10.55;4.97;;;;;;;;;;5088886;28;20024;-49
2022/03/13 10:09:29;;;;;;;9.98;4.93;;;;;;;;;;5079896;28;20032;-47
2022/03/13 10:12:09;;;;;;;12.75;5.03;;;;;;;;;;5083805;28;20423;-48
2022/03/13 10:14:38;;;;;;;8.20;4.03;;;;;;;;;;5074749;28;20047;-48
2022/03/13 10:17:05;;;;;;;12.40;5.40;;;;;;;;;;5078622;28;20514;-48
2022/03/13 10:19:31;;;;;;;11.48;4.32;;;;;;;;;;5089941;28;20023;-47
2022/03/13 10:22:08;;;;;;;9.68;4.70;;;;;;;;;;5080388;28;20551;-47
2022/03/13 10:24:49;;;;;;;9.27;4.53;;;;;;;;;;5078770;28;20036;-47
2022/03/13 10:27:18;;;;;;;7.38;3.78;;;;;;;;;;5085492;28;20100;-47
2022/03/13 10:29:48;;;;;;;5.65;3.15;;;;;;;;;;5080033;28;20040;-45
2022/03/13 10:32:14;;;;;;;6.25;3.38;;;;;;;;;;5082074;28;20077;-46
2022/03/13 10:34:40;;;;;;;7.05;3.45;;;;;;;;;;5076372;28;20490;-45
2022/03/13 10:37:07;;;;;;;7.93;3.83;;;;;;;;;;5079415;28;20113;-46
2022/03/13 10:39:34;;;;;;;8.18;4.00;;;;;;;;;;5078793;28;20025;-45
2022/03/13 10:42:02;;;;;;;9.48;4.13;;;;;;;;;;5078262;28;20024;-44
2022/03/13 10:44:33;;;;;;;7.40;3.20;;;;;;;;;;5082568;28;20461;-45
2022/03/13 10:47:02;;;;;;;6.90;3.50;;;;;;;;;;5076771;28;20032;-45
2022/03/13 10:49:42;;;;;;;6.07;3.50;;;;;;;;;;5085788;28;20119;-46
2022/03/13 10:52:26;;;;;;;7.65;3.30;;;;;;;;;;5082911;28;20028;-45
2022/03/13 10:54:57;;;;;;;5.82;2.78;;;;;;;;;;5088582;28;20110;-46
2022/03/13 10:57:23;;;;;;;7.10;3.30;;;;;;;;;;5094541;28;20367;-45
2022/03/13 11:00:07;;;;;;;4.93;2.75;;;;;;;;;;5080951;28;20032;-47
2022/03/13 11:02:33;;;;;;;7.75;3.00;;;;;;;;;;5086171;28;20108;-47
2022/03/13 11:05:00;;;;;;;6.60;3.05;;;;;;;;;;5088559;28;20036;-45
2022/03/13 11:07:27;;;;;;;5.32;2.90;;;;;;;;;;5087544;28;20102;-47
2022/03/13 11:09:56;;;;;;;6.70;3.30;;;;;;;;;;5090540;28;20071;-49
2022/03/13 11:12:23;;;;;;;5.30;2.72;;;;;;;;;;5083028;28;20040;-46
2022/03/13 11:14:53;;;;;;;6.68;2.85;;;;;;;;;;5092269;28;20483;-45
2022/03/13 11:17:20;;;;;;;6.38;3.15;;;;;;;;;;5093003;28;20074;-47
2022/03/13 11:19:50;;;;;;;7.05;3.08;;;;;;;;;;5088160;28;20055;-47
2022/03/13 11:22:18;;;;;;;5.47;3.00;;;;;;;;;;5092231;28;20035;-51
2022/03/13 11:24:44;;;;;;;6.30;2.97;;;;;;;;;;5085493;28;20024;-48
2022/03/13 11:27:11;;;;;;;7.65;3.10;;;;;;;;;;5088187;28;20028;-45
2022/03/13 11:29:53;;;;;;;5.53;2.75;;;;;;;;;;5085873;28;20051;-46
2022/03/13 11:32:29;;;;;;;5.72;2.90;;;;;;;;;;5077274;28;20591;-47
2022/03/13 11:35:13;;;;;;;4.05;2.58;;;;;;;;;;5089167;28;20044;-49
2022/03/13 11:37:40;;;;;;;5.68;2.90;;;;;;;;;;5090807;28;20040;-45
2022/03/13 11:40:07;;;;;;;5.03;2.70;;;;;;;;;;5085424;28;20043;-48
2022/03/13 11:42:49;;;;;;;7.80;2.25;;;;;;;;;;5075312;28;20058;-50
2022/03/13 11:45:29;;;;;;;4.65;2.45;;;;;;;;;;5089553;28;20026;-47
2022/03/13 11:47:55;;;;;;;4.97;2.25;;;;;;;;;;5085105;28;20108;-47
2022/03/13 11:50:27;;;;;;;7.57;2.15;;;;;;;;;;5086924;28;20024;-46
2022/03/13 11:53:13;;;;;;;6.28;2.55;;;;;;;;;;5087395;28;20177;-47
2022/03/13 11:55:59;;;;;;;5.60;2.08;;;;;;;;;;5089702;28;20073;-50
2022/03/13 11:58:42;;;;;;;4.20;2.10;;;;;;;;;;5082604;28;20028;-51
2022/03/13 12:01:12;;;;;;;4.22;2.35;;;;;;;;;;5088500;28;20032;-46
2022/03/13 12:03:38;;;;;;;3.53;1.80;;;;;;;;;;5085258;28;20358;-46
2022/03/13 12:06:04;;;;;;;5.90;2.67;;;;;;;;;;5084494;28;20036;-47
2022/03/13 12:08:51;;;;;;;4.05;2.40;;;;;;;;;;5083405;28;20390;-49
2022/03/13 12:11:34;;;;;;;4.53;2.15;;;;;;;;;;5084667;28;20048;-48
2022/03/13 12:14:00;;;;;;;3.63;2.20;;;;;;;;;;5086137;28;20047;-48
2022/03/13 12:16:26;;;;;;;4.85;2.20;;;;;;;;;;5083225;28;20107;-48
2022/03/13 12:18:59;;;;;;;4.28;2.25;;;;;;;;;;5085230;28;20035;-47
2022/03/13 12:21:25;;;;;;;5.85;2.53;;;;;;;;;;5083138;28;20024;-46
2022/03/13 12:23:52;;;;;;;5.60;2.63;;;;;;;;;;5088570;28;20043;-46
2022/03/13 12:26:21;;;;;;;5.30;2.35;;;;;;;;;;5078084;28;20036;-50
2022/03/13 12:28:48;;;;;;;4.75;2.50;;;;;;;;;;5084217;28;20032;-47
2022/03/13 12:31:14;;;;;;;3.97;2.45;;;;;;;;;;5077875;28;20368;-49
2022/03/13 12:33:47;;;;;;;4.03;2.40;;;;;;;;;;5086466;28;20360;-49
2022/03/13 12:36:13;;;;;;;;;;;;;;;;;;5080885;28;20082;-47
2022/03/13 12:38:43;;;;;;;5.40;2.50;;;;;;;;;;5085790;28;19912;-46
2022/03/13 12:41:09;;;;;;;4.90;2.40;;;;;;;;;;5089507;28;20372;-45
2022/03/13 12:43:46;;;;;;;7.10;2.88;;;;;;;;;;5085592;28;20539;-48
2022/03/13 12:46:13;;;;;;;4.40;2.70;;;;;;;;;;5077155;28;20047;-50
2022/03/13 12:48:39;;;;;;;5.38;2.78;;;;;;;;;;5081105;28;20059;-47
2022/03/13 12:51:05;;;;;;;5.00;2.85;;;;;;;;;;5091677;28;20028;-46
2022/03/13 12:53:32;;;;;;;4.50;2.42;;;;;;;;;;5083971;28;20494;-46
2022/03/13 12:55:59;;;;;;;6.70;2.97;;;;;;;;;;5083766;28;20042;-47
2022/03/13 12:58:43;;;;;;;5.57;2.78;;;;;;;;;;5093394;28;20028;-47
2022/03/13 13:01:20;;;;;;;4.95;2.67;;;;;;;;;;5080514;28;20076;-46
2022/03/13 13:03:50;;;;;;;5.93;2.88;;;;;;;;;;5093166;28;20031;-46
2022/03/13 13:06:28;;;;;;;4.35;2.60;;;;;;;;;;5080020;28;20338;-46
2022/03/13 13:08:54;;;;;;;8.30;3.20;;;;;;;;;;5082251;28;20017;-46
2022/03/13 13:11:31;;;;;;;6.20;2.80;;;;;;;;;;5078426;28;20475;-46
2022/03/13 13:14:01;;;;;;;5.60;2.80;;;;;;;;;;5086098;28;20407;-47
2022/03/13 13:16:28;;;;;;;5.15;3.13;;;;;;;;;;5083228;28;20059;-46
2022/03/13 13:18:54;;;;;;;5.43;3.00;;;;;;;;;;5088968;28;20028;-49
2022/03/13 13:21:32;;;;;;;6.07;3.63;;;;;;;;;;5086772;28;20028;-48
2022/03/13 13:23:58;;;;;;;9.95;3.55;;;;;;;;;;5086618;28;20024;-47
2022/03/13 13:26:40;;;;;;;6.63;3.03;;;;;;;;;;5079220;28;20082;-48
2022/03/13 13:29:06;;;;;;;5.82;3.53;;;;;;;;;;5079056;28;20029;-46
2022/03/13 13:31:32;;;;;;;7.88;3.10;;;;;;;;;;5083625;28;20095;-46
2022/03/13 13:34:13;;;;;;;6.13;2.90;;;;;;;;;;5091812;28;20035;-48
2022/03/13 13:36:39;;;;;;;5.53;2.70;;;;;;;;;;5087457;28;20029;-52
2022/03/13 13:39:06;;;;;;;5.40;2.88;;;;;;;;;;5072757;28;20036;-48
2022/03/13 13:41:34;;;;;;;6.32;3.30;;;;;;;;;;5080327;28;20033;-50
2022/03/13 13:44:00;;;;;;;6.13;3.13;;;;;;;;;;5079330;28;20024;-49
2022/03/13 13:46:30;;;;;;;5.65;3.13;;;;;;;;;;5082013;28;20150;-47
2022/03/13 13:48:56;;;;;;;7.22;3.65;;;;;;;;;;5087295;28;20514;-48
2022/03/13 13:51:29;;;;;;;5.75;3.33;;;;;;;;;;5085057;28;20480;-47
2022/03/13 13:54:08;;;;;;;5.47;3.20;;;;;;;;;;5090286;28;20146;-46
2022/03/13 13:57:03;;;;;;;8.27;3.63;;;;;;;;;;5082708;28;20582;-47
2022/03/13 13:59:30;;;;;;;5.75;3.10;;;;;;;;;;5076003;28;20040;-48
2022/03/13 14:02:08;;;;;;;8.50;3.83;;;;;;;;;;5086767;28;20388;-46
2022/03/13 14:04:35;;;;;;;6.30;3.30;;;;;;;;;;5080971;28;20464;-46
2022/03/13 14:07:01;;;;;;;7.93;3.22;;;;;;;;;;5087902;28;20452;-48
2022/03/13 14:09:27;;;;;;;5.90;2.90;;;;;;;;;;5081206;28;20103;-46
2022/03/13 14:11:53;;;;;;;6.75;3.03;;;;;;;;;;5084571;28;20030;-47
2022/03/13 14:14:20;;;;;;;7.55;3.65;;;;;;;;;;5078362;28;20360;-48
2022/03/13 14:16:46;;;;;;;9.32;3.17;;;;;;;;;;5079853;28;20314;-45
2022/03/13 14:19:12;;;;;;;8.50;3.38;;;;;;;;;;5082213;28;20106;-51
2022/03/13 14:21:39;;;;;;;7.63;3.50;;;;;;;;;;5077918;28;20088;-46
2022/03/13 14:24:06;;;;;;;6.55;2.70;;;;;;;;;;5081017;28;20900;-47
2022/03/13 14:26:32;;;;;;;6.50;3.08;;;;;;;;;;5077029;28;20016;-46
2022/03/13 14:28:59;;;;;;;6.72;3.38;;;;;;;;;;5084889;28;20055;-45
2022/03/13 14:31:25;;;;;;;8.68;3.63;;;;;;;;;;5079369;28;20031;-46
2022/03/13 14:33:51;;;;;;;7.30;3.33;;;;;;;;;;5087885;28;20028;-47
2022/03/13 14:36:17;;;;;;;5.97;3.10;;;;;;;;;;5082068;28;20043;-46